sensor_id;sensor_type;location;lat;lon;timestamp;temperature;humidity
61339;DHT22;47213;52.362;4.606;2023-04-24T00:04:57;12.30;26.10
61339;DHT22;47213;52.362;4.606;2023-04-24T00:09:57;12.10;26.10
61339;DHT22;47213;52.362;4.606;2023-04-24T00:14:57;12.00;26.10
61339;DHT22;47213;52.362;4.606;2023-04-24T00:34:57;11.80;26.10
61339;DHT22;47213;52.362;4.606;2023-04-24T00:39:57;11.70;26.10
61339;DHT22;47213;52.362;4.606;2023-04-24T00:44:57;11.80;26.10
61339;DHT22;47213;52.362;4.606;2023-04-24T00:49:57;11.60;26.10
61339;DHT22;47213;52.362;4.606;2023-04-24T00:54:58;11.70;26.10
61339;DHT22;47213;52.362;4.606;2023-04-24T00:59:57;11.50;26.10
61339;DHT22;47213;52.362;4.606;2023-04-24T01:04:57;11.60;26.10
61339;DHT22;47213;52.362;4.606;2023-04-24T01:09:57;11.40;26.10
61339;DHT22;47213;52.362;4.606;2023-04-24T01:14:57;11.30;26.10
61339;DHT22;47213;52.362;4.606;2023-04-24T01:19:58;11.20;26.10
61339;DHT22;47213;52.362;4.606;2023-04-24T01:24:57;11.10;26.10
61339;DHT22;47213;52.362;4.606;2023-04-24T01:34:57;11.20;26.10
61339;DHT22;47213;52.362;4.606;2023-04-24T01:39:57;11.00;26.10
61339;DHT22;47213;52.362;4.606;2023-04-24T01:44:58;10.90;26.10
61339;DHT22;47213;52.362;4.606;2023-04-24T01:49:58;10.60;26.10
61339;DHT22;47213;52.362;4.606;2023-04-24T01:54:59;10.40;26.10
61339;DHT22;47213;52.362;4.606;2023-04-24T01:59:58;10.30;26.10
61339;DHT22;47213;52.362;4.606;2023-04-24T02:04:58;10.40;26.10
61339;DHT22;47213;52.362;4.606;2023-04-24T02:09:58;10.30;26.10
61339;DHT22;47213;52.362;4.606;2023-04-24T02:14:58;10.40;26.10
61339;DHT22;47213;52.362;4.606;2023-04-24T02:24:58;10.60;26.10
61339;DHT22;47213;52.362;4.606;2023-04-24T02:29:58;10.80;26.10
61339;DHT22;47213;52.362;4.606;2023-04-24T02:34:58;11.00;26.10
61339;DHT22;47213;52.362;4.606;2023-04-24T02:49:58;10.80;26.10
61339;DHT22;47213;52.362;4.606;2023-04-24T02:59:58;10.70;26.10
61339;DHT22;47213;52.362;4.606;2023-04-24T03:04:58;10.80;26.10
61339;DHT22;47213;52.362;4.606;2023-04-24T03:09:58;10.90;26.10
61339;DHT22;47213;52.362;4.606;2023-04-24T03:14:58;11.00;26.10
61339;DHT22;47213;52.362;4.606;2023-04-24T03:19:58;11.10;26.10
61339;DHT22;47213;52.362;4.606;2023-04-24T03:29:58;11.20;26.10
61339;DHT22;47213;52.362;4.606;2023-04-24T03:34:58;11.10;26.10
61339;DHT22;47213;52.362;4.606;2023-04-24T03:39:58;10.90;26.10
61339;DHT22;47213;52.362;4.606;2023-04-24T03:44:58;10.70;26.10
61339;DHT22;47213;52.362;4.606;2023-04-24T03:54:58;10.60;26.10
61339;DHT22;47213;52.362;4.606;2023-04-24T03:59:58;10.40;26.10
61339;DHT22;47213;52.362;4.606;2023-04-24T04:04:58;10.30;26.10
61339;DHT22;47213;52.362;4.606;2023-04-24T04:09:58;10.20;26.10
61339;DHT22;47213;52.362;4.606;2023-04-24T04:19:58;10.40;26.10
61339;DHT22;47213;52.362;4.606;2023-04-24T04:24:58;10.50;26.10
61339;DHT22;47213;52.362;4.606;2023-04-24T04:34:58;10.90;26.10
61339;DHT22;47213;52.362;4.606;2023-04-24T04:39:58;11.00;26.10
61339;DHT22;47213;52.362;4.606;2023-04-24T04:49:58;11.10;26.10
61339;DHT22;47213;52.362;4.606;2023-04-24T04:54:58;11.00;26.10
61339;DHT22;47213;52.362;4.606;2023-04-24T05:04:58;10.90;26.10
61339;DHT22;47213;52.362;4.606;2023-04-24T05:09:58;10.80;26.10
61339;DHT22;47213;52.362;4.606;2023-04-24T05:14:58;10.70;26.10
61339;DHT22;47213;52.362;4.606;2023-04-24T05:24:58;10.60;26.10
61339;DHT22;47213;52.362;4.606;2023-04-24T05:29:58;10.50;26.10
61339;DHT22;47213;52.362;4.606;2023-04-24T05:39:58;10.60;26.10
61339;DHT22;47213;52.362;4.606;2023-04-24T05:44:58;10.70;26.10
61339;DHT22;47213;52.362;4.606;2023-04-24T05:54:58;10.60;26.10
61339;DHT22;47213;52.362;4.606;2023-04-24T05:59:58;10.70;26.10
61339;DHT22;47213;52.362;4.606;2023-04-24T06:04:58;10.80;26.10
61339;DHT22;47213;52.362;4.606;2023-04-24T06:09:58;10.70;26.10
61339;DHT22;47213;52.362;4.606;2023-04-24T06:19:58;10.60;26.10
61339;DHT22;47213;52.362;4.606;2023-04-24T06:24:59;10.70;26.10
61339;DHT22;47213;52.362;4.606;2023-04-24T06:34:58;10.40;26.10
61339;DHT22;47213;52.362;4.606;2023-04-24T06:44:58;10.60;26.10
61339;DHT22;47213;52.362;4.606;2023-04-24T06:49:58;10.70;26.10
61339;DHT22;47213;52.362;4.606;2023-04-24T06:55:00;10.60;26.10
61339;DHT22;47213;52.362;4.606;2023-04-24T06:59:58;10.90;26.10
61339;DHT22;47213;52.362;4.606;2023-04-24T07:09:58;10.70;26.10
61339;DHT22;47213;52.362;4.606;2023-04-24T07:19:58;10.50;26.10
61339;DHT22;47213;52.362;4.606;2023-04-24T07:24:58;10.60;26.10
61339;DHT22;47213;52.362;4.606;2023-04-24T07:29:58;10.30;26.10
61339;DHT22;47213;52.362;4.606;2023-04-24T07:34:58;10.40;26.10
61339;DHT22;47213;52.362;4.606;2023-04-24T07:44:58;10.50;26.10
61339;DHT22;47213;52.362;4.606;2023-04-24T07:54:58;10.30;26.10
61339;DHT22;47213;52.362;4.606;2023-04-24T07:59:58;10.40;26.10
61339;DHT22;47213;52.362;4.606;2023-04-24T08:04:58;10.50;26.10
61339;DHT22;47213;52.362;4.606;2023-04-24T08:14:58;10.40;26.10
61339;DHT22;47213;52.362;4.606;2023-04-24T08:19:58;10.30;26.10
61339;DHT22;47213;52.362;4.606;2023-04-24T08:24:59;10.10;26.10
61339;DHT22;47213;52.362;4.606;2023-04-24T08:29:58;10.50;26.10
61339;DHT22;47213;52.362;4.606;2023-04-24T08:44:58;10.60;26.10
61339;DHT22;47213;52.362;4.606;2023-04-24T08:49:59;10.70;26.10
61339;DHT22;47213;52.362;4.606;2023-04-24T08:54:59;10.60;26.10
61339;DHT22;47213;52.362;4.606;2023-04-24T08:59:59;10.40;26.10
61339;DHT22;47213;52.362;4.606;2023-04-24T09:09:59;10.60;26.10
61339;DHT22;47213;52.362;4.606;2023-04-24T09:14:59;10.40;26.10
61339;DHT22;47213;52.362;4.606;2023-04-24T09:19:59;9.90;26.10
61339;DHT22;47213;52.362;4.606;2023-04-24T09:24:59;10.10;26.10
61339;DHT22;47213;52.362;4.606;2023-04-24T09:29:59;10.40;26.10
61339;DHT22;47213;52.362;4.606;2023-04-24T09:35:15;11.20;26.10
61339;DHT22;47213;52.362;4.606;2023-04-24T09:40:15;11.80;26.10
61339;DHT22;47213;52.362;4.606;2023-04-24T09:44:59;11.70;22.90
61339;DHT22;47213;52.362;4.606;2023-04-24T09:49:59;11.60;22.90
61339;DHT22;47213;52.362;4.606;2023-04-24T09:54:59;11.50;24.80
61339;DHT22;47213;52.362;4.606;2023-04-24T09:59:59;10.90;25.50
61339;DHT22;47213;52.362;4.606;2023-04-24T10:04:59;10.70;26.10
61339;DHT22;47213;52.362;4.606;2023-04-24T10:09:59;10.60;26.10
61339;DHT22;47213;52.362;4.606;2023-04-24T10:14:59;10.40;26.10
61339;DHT22;47213;52.362;4.606;2023-04-24T10:19:59;10.60;26.10
61339;DHT22;47213;52.362;4.606;2023-04-24T10:24:59;10.90;26.10
61339;DHT22;47213;52.362;4.606;2023-04-24T10:29:59;11.50;26.10
61339;DHT22;47213;52.362;4.606;2023-04-24T10:34:59;11.80;26.10
61339;DHT22;47213;52.362;4.606;2023-04-24T10:39:59;11.50;25.60
61339;DHT22;47213;52.362;4.606;2023-04-24T10:44:59;11.60;25.60
61339;DHT22;47213;52.362;4.606;2023-04-24T10:54:59;12.00;24.80
61339;DHT22;47213;52.362;4.606;2023-04-24T11:00:16;12.60;24.80
61339;DHT22;47213;52.362;4.606;2023-04-24T11:05:00;-0.90;24.70
61339;DHT22;47213;52.362;4.606;2023-04-24T11:09:59;-3.10;25.00
61339;DHT22;47213;52.362;4.606;2023-04-24T11:15:00;-2.00;10.60
61339;DHT22;47213;52.362;4.606;2023-04-24T11:20:01;-1.70;10.60
61339;DHT22;47213;52.362;4.606;2023-04-24T11:24:59;-1.50;17.30
61339;DHT22;47213;52.362;4.606;2023-04-24T11:30:00;-2.30;15.40
61339;DHT22;47213;52.362;4.606;2023-04-24T11:35:00;-1.10;21.00
61339;DHT22;47213;52.362;4.606;2023-04-24T11:39:59;-0.80;21.00
61339;DHT22;47213;52.362;4.606;2023-04-24T11:44:59;-1.30;22.90
61339;DHT22;47213;52.362;4.606;2023-04-24T11:49:59;-0.50;22.90
61339;DHT22;47213;52.362;4.606;2023-04-24T11:54:59;12.40;5.90
61339;DHT22;47213;52.362;4.606;2023-04-24T12:00:00;11.70;8.60
61339;DHT22;47213;52.362;4.606;2023-04-24T12:04:59;11.60;8.60
61339;DHT22;47213;52.362;4.606;2023-04-24T12:09:59;11.50;15.70
61339;DHT22;47213;52.362;4.606;2023-04-24T12:14:59;12.00;10.90
61339;DHT22;47213;52.362;4.606;2023-04-24T12:20:00;12.30;6.20
61339;DHT22;47213;52.362;4.606;2023-04-24T12:25:00;12.50;6.80
61339;DHT22;47213;52.362;4.606;2023-04-24T12:30:00;12.10;27.30
61339;DHT22;47213;52.362;4.606;2023-04-24T12:34:59;12.40;7.40
61339;DHT22;47213;52.362;4.606;2023-04-24T12:40:01;11.90;3.50
61339;DHT22;47213;52.362;4.606;2023-04-24T12:45:00;11.80;3.50
61339;DHT22;47213;52.362;4.606;2023-04-24T12:49:59;11.50;6.40
61339;DHT22;47213;52.362;4.606;2023-04-24T12:55:00;12.00;3.80
61339;DHT22;47213;52.362;4.606;2023-04-24T12:59:59;11.60;9.00
61339;DHT22;47213;52.362;4.606;2023-04-24T13:04:59;12.10;6.50
61339;DHT22;47213;52.362;4.606;2023-04-24T13:09:59;12.40;26.30
61339;DHT22;47213;52.362;4.606;2023-04-24T13:14:59;12.10;5.80
61339;DHT22;47213;52.362;4.606;2023-04-24T13:19:59;12.20;17.30
61339;DHT22;47213;52.362;4.606;2023-04-24T13:24:59;12.30;17.30
61339;DHT22;47213;52.362;4.606;2023-04-24T13:29:59;12.10;20.10
61339;DHT22;47213;52.362;4.606;2023-04-24T13:34:59;12.30;8.50
61339;DHT22;47213;52.362;4.606;2023-04-24T13:39:59;0.00;8.50
61339;DHT22;47213;52.362;4.606;2023-04-24T13:44:59;12.00;23.30
61339;DHT22;47213;52.362;4.606;2023-04-24T13:49:59;11.90;23.30
61339;DHT22;47213;52.362;4.606;2023-04-24T13:54:59;12.30;3.40
61339;DHT22;47213;52.362;4.606;2023-04-24T13:59:59;12.20;3.40
61339;DHT22;47213;52.362;4.606;2023-04-24T14:04:59;12.60;3.20
61339;DHT22;47213;52.362;4.606;2023-04-24T14:09:59;0.00;26.10
61339;DHT22;47213;52.362;4.606;2023-04-24T14:14:59;12.50;23.00
61339;DHT22;47213;52.362;4.606;2023-04-24T14:19:59;12.10;25.20
61339;DHT22;47213;52.362;4.606;2023-04-24T14:24:59;12.40;24.50
61339;DHT22;47213;52.362;4.606;2023-04-24T14:30:00;12.60;26.80
61339;DHT22;47213;52.362;4.606;2023-04-24T14:34:59;12.50;25.20
61339;DHT22;47213;52.362;4.606;2023-04-24T14:39:59;12.30;20.50
61339;DHT22;47213;52.362;4.606;2023-04-24T14:44:59;12.50;24.20
61339;DHT22;47213;52.362;4.606;2023-04-24T14:49:59;12.60;21.30
61339;DHT22;47213;52.362;4.606;2023-04-24T14:54:59;-0.10;19.50
61339;DHT22;47213;52.362;4.606;2023-04-24T14:59:59;12.70;21.10
61339;DHT22;47213;52.362;4.606;2023-04-24T15:04:59;-0.10;23.00
61339;DHT22;47213;52.362;4.606;2023-04-24T15:09:59;12.40;20.70
61339;DHT22;47213;52.362;4.606;2023-04-24T15:15:00;12.20;23.00
61339;DHT22;47213;52.362;4.606;2023-04-24T15:20:00;12.30;22.20
61339;DHT22;47213;52.362;4.606;2023-04-24T15:25:00;12.00;22.20
61339;DHT22;47213;52.362;4.606;2023-04-24T15:30:00;12.20;21.80
61339;DHT22;47213;52.362;4.606;2023-04-24T15:35:00;12.10;22.20
61339;DHT22;47213;52.362;4.606;2023-04-24T15:40:00;12.20;21.00
61339;DHT22;47213;52.362;4.606;2023-04-24T15:45:00;12.30;21.00
61339;DHT22;47213;52.362;4.606;2023-04-24T15:50:00;12.00;22.80
61339;DHT22;47213;52.362;4.606;2023-04-24T15:55:00;12.40;21.10
61339;DHT22;47213;52.362;4.606;2023-04-24T16:00:00;0.00;21.10
61339;DHT22;47213;52.362;4.606;2023-04-24T16:05:00;12.30;20.50
61339;DHT22;47213;52.362;4.606;2023-04-24T16:10:00;12.00;20.50
61339;DHT22;47213;52.362;4.606;2023-04-24T16:15:00;11.80;24.70
61339;DHT22;47213;52.362;4.606;2023-04-24T16:20:00;11.70;23.80
61339;DHT22;47213;52.362;4.606;2023-04-24T16:25:00;11.60;24.10
61339;DHT22;47213;52.362;4.606;2023-04-24T16:30:00;11.50;27.10
61339;DHT22;47213;52.362;4.606;2023-04-24T16:35:00;12.10;3.50
61339;DHT22;47213;52.362;4.606;2023-04-24T16:40:00;11.90;3.50
61339;DHT22;47213;52.362;4.606;2023-04-24T16:45:00;11.80;25.10
61339;DHT22;47213;52.362;4.606;2023-04-24T16:55:00;11.40;3.80
61339;DHT22;47213;52.362;4.606;2023-04-24T17:00:00;11.20;5.10
61339;DHT22;47213;52.362;4.606;2023-04-24T17:05:00;11.30;7.40
61339;DHT22;47213;52.362;4.606;2023-04-24T17:10:00;11.10;7.00
61339;DHT22;47213;52.362;4.606;2023-04-24T17:15:00;11.30;7.00
61339;DHT22;47213;52.362;4.606;2023-04-24T17:20:00;11.50;6.30
61339;DHT22;47213;52.362;4.606;2023-04-24T17:25:00;11.30;6.30
61339;DHT22;47213;52.362;4.606;2023-04-24T17:30:00;11.40;9.20
61339;DHT22;47213;52.362;4.606;2023-04-24T17:35:00;11.20;9.20
61339;DHT22;47213;52.362;4.606;2023-04-24T17:40:00;11.10;13.10
61339;DHT22;47213;52.362;4.606;2023-04-24T17:45:00;11.30;12.70
61339;DHT22;47213;52.362;4.606;2023-04-24T17:50:00;11.20;13.90
61339;DHT22;47213;52.362;4.606;2023-04-24T17:55:00;11.10;13.90
61339;DHT22;47213;52.362;4.606;2023-04-24T18:00:00;11.20;12.90
61339;DHT22;47213;52.362;4.606;2023-04-24T18:05:00;11.00;17.20
61339;DHT22;47213;52.362;4.606;2023-04-24T18:10:00;10.90;17.20
61339;DHT22;47213;52.362;4.606;2023-04-24T18:20:00;11.00;26.10
61339;DHT22;47213;52.362;4.606;2023-04-24T18:25:00;10.90;26.10
61339;DHT22;47213;52.362;4.606;2023-04-24T18:30:00;10.70;25.60
61339;DHT22;47213;52.362;4.606;2023-04-24T18:35:00;10.20;26.10
61339;DHT22;47213;52.362;4.606;2023-04-24T18:40:00;9.80;26.10
61339;DHT22;47213;52.362;4.606;2023-04-24T18:50:00;9.90;26.10
61339;DHT22;47213;52.362;4.606;2023-04-24T18:55:00;10.20;26.10
61339;DHT22;47213;52.362;4.606;2023-04-24T19:05:00;9.80;26.10
61339;DHT22;47213;52.362;4.606;2023-04-24T19:15:00;10.10;26.10
61339;DHT22;47213;52.362;4.606;2023-04-24T19:25:00;9.90;26.10
61339;DHT22;47213;52.362;4.606;2023-04-24T19:30:00;9.80;26.10
61339;DHT22;47213;52.362;4.606;2023-04-24T19:40:00;9.90;26.10
61339;DHT22;47213;52.362;4.606;2023-04-24T19:55:00;9.70;26.10
61339;DHT22;47213;52.362;4.606;2023-04-24T20:00:00;9.80;26.10
61339;DHT22;47213;52.362;4.606;2023-04-24T20:05:00;10.00;26.10
61339;DHT22;47213;52.362;4.606;2023-04-24T20:30:00;10.10;26.10
61339;DHT22;47213;52.362;4.606;2023-04-24T20:35:00;10.00;26.10
61339;DHT22;47213;52.362;4.606;2023-04-24T20:45:01;10.20;26.10
61339;DHT22;47213;52.362;4.606;2023-04-24T20:50:00;10.10;26.10
61339;DHT22;47213;52.362;4.606;2023-04-24T21:05:00;10.00;26.10
61339;DHT22;47213;52.362;4.606;2023-04-24T21:25:01;10.20;26.10
61339;DHT22;47213;52.362;4.606;2023-04-24T21:30:01;9.90;26.10
61339;DHT22;47213;52.362;4.606;2023-04-24T21:45:01;10.10;25.90
61339;DHT22;47213;52.362;4.606;2023-04-24T21:50:01;9.90;24.50
61339;DHT22;47213;52.362;4.606;2023-04-24T22:20:01;9.80;19.20
61339;DHT22;47213;52.362;4.606;2023-04-24T22:25:01;10.00;16.70
61339;DHT22;47213;52.362;4.606;2023-04-24T22:35:01;9.90;16.30
61339;DHT22;47213;52.362;4.606;2023-04-24T22:50:01;9.80;19.30
61339;DHT22;47213;52.362;4.606;2023-04-24T23:05:01;9.70;18.50
61339;DHT22;47213;52.362;4.606;2023-04-24T23:15:01;9.80;17.70
61339;DHT22;47213;52.362;4.606;2023-04-24T23:20:01;9.60;17.70
61339;DHT22;47213;52.362;4.606;2023-04-24T23:25:01;9.70;17.60
61339;DHT22;47213;52.362;4.606;2023-04-24T23:30:01;9.50;17.60
61339;DHT22;47213;52.362;4.606;2023-04-24T23:40:01;9.60;18.60
61339;DHT22;47213;52.362;4.606;2023-04-24T23:55:01;9.70;16.50
